Main page
METAR-TAF:

METAR-TAF

Airports :

Puerto Suárez International Airport

Puerto Suárez, Bolivia

latitude: 18-59S, longitude: 057-49W, elevation: 134 m

Current weather observation

The report was made 14 hours and 2 minutes ago, at 22:00 UTC
Wind 3 kt from the South
Temperature 19°C
Humidity 94%
Pressure 1017 hPa
Visibility 10 km or more
Broken clouds at a height of 1500 ft
Broken clouds at a height of 20000 ft

METAR: SLPS 112200Z 18003KT 9999 BKN015 BKN200 19/18 Q1017

Time: 08:02 (12:02 UTC)


TAF: missing

Weather observations and forecasts of more than 4000 airports (METAR and TAF reports).

The available stations are represented by yellow and red dots on the map.

Hover mouse over dot to see the name of the station.

Then click to see weather observations and forecasts.

To change the map : click on the green buttons with a black cross to zoom in, on the green button with a dash to zoom out, or on the green arrows for adjacent maps.


METAR-TAF: